createdAt,value
2023-01-29T00:00:11.923Z,-0.30
2023-01-29T00:02:40.102Z,-0.30
2023-01-29T00:05:26.419Z,-0.30
2023-01-29T00:07:56.305Z,-0.30
2023-01-29T00:10:24.693Z,-0.30
2023-01-29T00:12:52.814Z,-0.30
2023-01-29T00:15:21.527Z,-0.30
2023-01-29T00:17:49.790Z,-0.30
2023-01-29T00:20:19.639Z,-0.30
2023-01-29T00:22:47.979Z,-0.30
2023-01-29T00:25:16.096Z,-0.30
2023-01-29T00:27:44.711Z,-0.20
2023-01-29T00:30:13.821Z,-0.20
2023-01-29T00:32:42.236Z,-0.20
2023-01-29T00:35:11.018Z,-0.20
2023-01-29T00:37:40.419Z,-0.20
2023-01-29T00:40:09.848Z,-0.20
2023-01-29T00:42:55.581Z,-0.20
2023-01-29T00:45:24.755Z,-0.20
2023-01-29T00:47:52.906Z,-0.20
2023-01-29T00:50:21.224Z,-0.20
2023-01-29T00:52:51.701Z,-0.10
2023-01-29T00:55:20.037Z,-0.10
2023-01-29T00:57:48.440Z,-0.10
2023-01-29T01:00:19.485Z,-0.10
2023-01-29T01:03:05.316Z,-0.10
2023-01-29T01:05:33.590Z,-0.10
2023-01-29T01:08:02.943Z,-0.10
2023-01-29T01:10:32.010Z,-0.10
2023-01-29T01:13:02.696Z,-0.20
2023-01-29T01:15:33.489Z,-0.20
2023-01-29T01:18:03.339Z,-0.20
2023-01-29T01:20:33.784Z,-0.20
2023-01-29T01:23:03.364Z,-0.20
2023-01-29T01:25:31.422Z,-0.30
2023-01-29T01:28:01.217Z,-0.30
2023-01-29T01:30:29.556Z,-0.30
2023-01-29T01:32:57.760Z,-0.30
2023-01-29T01:35:25.858Z,-0.40
2023-01-29T01:37:53.841Z,-0.40
2023-01-29T01:40:25.217Z,-0.40
2023-01-29T01:42:55.648Z,-0.40
2023-01-29T01:45:27.789Z,-0.40
2023-01-29T01:48:00.894Z,-0.40
2023-01-29T01:50:35.386Z,-0.40
2023-01-29T01:53:08.886Z,-0.40
2023-01-29T01:55:41.992Z,-0.40
2023-01-29T01:58:14.058Z,-0.40
2023-01-29T02:00:42.785Z,-0.40
2023-01-29T02:03:29.800Z,-0.40
2023-01-29T02:06:16.914Z,-0.40
2023-01-29T02:09:11.603Z,-0.40
2023-01-29T02:11:41.138Z,-0.40
2023-01-29T02:14:09.799Z,-0.40
2023-01-29T02:16:38.730Z,-0.40
2023-01-29T02:19:15.648Z,-0.40
2023-01-29T02:22:06.975Z,-0.40
2023-01-29T02:25:10.864Z,-0.40
2023-01-29T02:28:04.662Z,-0.40
2023-01-29T02:30:38.909Z,-0.40
2023-01-29T02:33:15.072Z,-0.40
2023-01-29T02:35:47.780Z,-0.40
2023-01-29T02:38:24.596Z,-0.40
2023-01-29T02:40:58.442Z,-0.40
2023-01-29T02:43:35.442Z,-0.40
2023-01-29T02:46:14.745Z,-0.50
2023-01-29T02:48:55.256Z,-0.40
2023-01-29T02:51:28.511Z,-0.40
2023-01-29T02:54:04.382Z,-0.40
2023-01-29T02:56:38.479Z,-0.40
2023-01-29T02:59:11.465Z,-0.40
2023-01-29T03:01:45.098Z,-0.40
2023-01-29T03:04:18.395Z,-0.40
2023-01-29T03:06:50.843Z,-0.40
2023-01-29T03:09:26.116Z,-0.40
2023-01-29T03:12:00.237Z,-0.30
2023-01-29T03:15:02.478Z,-0.30
2023-01-29T03:17:44.318Z,-0.30
2023-01-29T03:20:17.626Z,-0.30
2023-01-29T03:22:51.910Z,-0.30
2023-01-29T03:25:41.237Z,-0.20
2023-01-29T03:28:31.398Z,-0.20
2023-01-29T03:31:21.643Z,-0.20
2023-01-29T03:33:54.636Z,-0.20
2023-01-29T03:36:28.511Z,-0.30
2023-01-29T03:38:57.235Z,-0.30
2023-01-29T03:41:32.055Z,-0.30
2023-01-29T03:44:11.502Z,-0.30
2023-01-29T03:46:47.729Z,-0.30
2023-01-29T03:49:23.730Z,-0.30
2023-01-29T03:51:58.699Z,-0.20
2023-01-29T03:54:36.074Z,-0.20
2023-01-29T03:57:12.485Z,-0.20
2023-01-29T03:59:47.672Z,-0.20
2023-01-29T04:02:27.799Z,-0.20
2023-01-29T04:04:59.688Z,-0.20
2023-01-29T04:07:29.716Z,-0.20
2023-01-29T04:10:01.140Z,-0.20
2023-01-29T04:12:33.030Z,-0.20
2023-01-29T04:15:03.769Z,-0.20
2023-01-29T04:17:38.136Z,-0.20
2023-01-29T04:20:07.374Z,-0.20
2023-01-29T04:22:37.167Z,-0.20
2023-01-29T04:25:09.472Z,-0.20
2023-01-29T04:27:45.120Z,-0.20
2023-01-29T04:30:25.024Z,-0.10
2023-01-29T04:33:04.253Z,-0.10
2023-01-29T04:35:39.270Z,-0.10
2023-01-29T04:38:13.705Z,-0.10
2023-01-29T04:40:52.429Z,0.00
2023-01-29T04:43:27.600Z,0.00
2023-01-29T04:46:11.176Z,0.00
2023-01-29T04:48:53.483Z,0.00
2023-01-29T04:51:26.869Z,0.00
2023-01-29T04:54:00.985Z,0.00
2023-01-29T04:56:36.556Z,-0.10
2023-01-29T04:59:08.036Z,-0.10
2023-01-29T05:01:38.486Z,-0.20
2023-01-29T05:04:12.998Z,-0.20
2023-01-29T05:06:42.728Z,-0.20
2023-01-29T05:09:13.081Z,-0.30
2023-01-29T05:11:41.850Z,-0.40
2023-01-29T05:14:15.561Z,-0.40
2023-01-29T05:16:46.075Z,-0.40
2023-01-29T05:19:17.371Z,-0.50
2023-01-29T05:21:48.338Z,-0.50
2023-01-29T05:24:18.342Z,-0.50
2023-01-29T05:27:06.325Z,-0.50
2023-01-29T05:29:34.690Z,-0.50
2023-01-29T05:32:03.566Z,-0.60
2023-01-29T05:34:33.101Z,-0.60
2023-01-29T05:37:01.265Z,-0.50
2023-01-29T05:39:29.506Z,-0.50
2023-01-29T05:41:58.485Z,-0.50
2023-01-29T05:44:26.739Z,-0.50
2023-01-29T05:46:54.970Z,-0.50
2023-01-29T05:49:23.201Z,-0.60
2023-01-29T05:51:53.335Z,-0.60
2023-01-29T05:54:21.556Z,-0.60
2023-01-29T05:56:49.723Z,-0.60
2023-01-29T05:59:18.081Z,-0.60
2023-01-29T06:01:46.233Z,-0.60
2023-01-29T06:04:14.411Z,-0.60
2023-01-29T06:06:42.475Z,-0.60
2023-01-29T06:09:13.277Z,-0.70
2023-01-29T06:11:41.429Z,-0.70
2023-01-29T06:14:09.617Z,-0.70
2023-01-29T06:16:37.689Z,-0.70
2023-01-29T06:19:05.831Z,-0.70
2023-01-29T06:21:33.915Z,-0.70
2023-01-29T06:24:02.385Z,-0.60
2023-01-29T06:26:31.909Z,-0.60
2023-01-29T06:28:59.912Z,-0.60
2023-01-29T06:31:38.266Z,-0.60
2023-01-29T06:34:07.358Z,-0.60
2023-01-29T06:36:35.806Z,-0.60
2023-01-29T06:39:04.293Z,-0.60
2023-01-29T06:41:33.854Z,-0.70
2023-01-29T06:44:01.944Z,-0.70
2023-01-29T06:46:32.731Z,-0.60
2023-01-29T06:49:01.410Z,-0.60
2023-01-29T06:51:29.634Z,-0.60
2023-01-29T06:53:57.792Z,-0.60
2023-01-29T06:56:26.059Z,-0.60
2023-01-29T06:58:55.553Z,-0.60
2023-01-29T07:01:35.036Z,-0.50
2023-01-29T07:04:04.047Z,-0.50
2023-01-29T07:06:32.649Z,-0.50
2023-01-29T07:09:00.838Z,-0.50
2023-01-29T07:11:28.914Z,-0.50
2023-01-29T07:13:58.481Z,-0.40
2023-01-29T07:16:27.078Z,-0.40
2023-01-29T07:18:55.203Z,-0.40
2023-01-29T07:21:23.425Z,-0.40
2023-01-29T07:23:51.738Z,-0.40
2023-01-29T07:26:19.775Z,-0.40
2023-01-29T07:28:47.847Z,-0.40
2023-01-29T07:31:17.672Z,-0.40
2023-01-29T07:33:46.164Z,-0.40
2023-01-29T07:36:14.865Z,-0.40
2023-01-29T07:38:42.974Z,-0.40
2023-01-29T07:41:12.327Z,-0.40
2023-01-29T07:43:40.339Z,-0.40
2023-01-29T07:46:08.685Z,-0.40
2023-01-29T07:48:38.243Z,-0.40
2023-01-29T07:51:06.708Z,-0.30
2023-01-29T07:53:35.879Z,-0.30
2023-01-29T07:56:04.193Z,-0.30
2023-01-29T07:58:32.233Z,-0.30
2023-01-29T08:01:00.291Z,-0.30
2023-01-29T08:03:28.456Z,-0.20
2023-01-29T08:05:59.190Z,-0.20
2023-01-29T08:08:27.272Z,-0.20
2023-01-29T08:10:55.441Z,-0.20
2023-01-29T08:13:23.587Z,-0.10
2023-01-29T08:15:51.673Z,-0.10
2023-01-29T08:18:19.748Z,0.00
2023-01-29T08:20:47.780Z,0.00
2023-01-29T08:23:17.510Z,0.10
2023-01-29T08:25:45.961Z,0.10
2023-01-29T08:28:14.000Z,0.20
2023-01-29T08:30:44.099Z,0.20
2023-01-29T08:33:12.578Z,0.20
2023-01-29T08:35:41.256Z,0.30
2023-01-29T08:38:10.540Z,0.30
2023-01-29T08:40:40.467Z,0.30
2023-01-29T08:43:09.718Z,0.30
2023-01-29T08:45:39.611Z,0.20
2023-01-29T08:48:08.548Z,0.10
2023-01-29T08:50:38.070Z,0.10
2023-01-29T08:53:08.611Z,0.10
2023-01-29T08:55:38.059Z,0.10
2023-01-29T08:58:08.440Z,0.10
2023-01-29T09:00:36.809Z,0.00
2023-01-29T09:03:05.102Z,0.00
2023-01-29T09:05:33.211Z,0.10
2023-01-29T09:08:01.354Z,0.10
2023-01-29T09:10:29.452Z,0.20
2023-01-29T09:12:57.615Z,0.30
2023-01-29T09:15:27.371Z,0.30
2023-01-29T09:17:55.464Z,0.40
2023-01-29T09:20:23.758Z,0.40
2023-01-29T09:22:53.682Z,0.40
2023-01-29T09:25:21.922Z,0.40
2023-01-29T09:27:49.937Z,0.40
2023-01-29T09:30:19.496Z,0.40
2023-01-29T09:32:53.565Z,0.50
2023-01-29T09:35:22.994Z,0.50
2023-01-29T09:37:51.463Z,0.50
2023-01-29T09:40:27.109Z,0.60
2023-01-29T09:42:59.928Z,0.60
2023-01-29T09:45:29.896Z,0.70
2023-01-29T09:48:01.416Z,0.90
2023-01-29T09:50:38.458Z,0.90
2023-01-29T09:53:14.818Z,0.90
2023-01-29T09:55:47.402Z,0.90
2023-01-29T09:58:20.472Z,0.90
2023-01-29T10:00:58.340Z,0.80
2023-01-29T10:03:46.202Z,0.90
2023-01-29T10:06:24.461Z,0.90
2023-01-29T10:09:31.284Z,0.90
2023-01-29T10:12:10.883Z,1.00
2023-01-29T10:14:48.307Z,1.10
2023-01-29T10:17:35.271Z,1.20
2023-01-29T10:20:31.894Z,1.20
2023-01-29T10:23:15.639Z,1.30
2023-01-29T10:25:46.150Z,1.50
2023-01-29T10:28:19.607Z,1.60
2023-01-29T10:30:50.776Z,1.70
2023-01-29T10:33:23.437Z,1.70
2023-01-29T10:35:57.335Z,1.70
2023-01-29T10:38:32.308Z,1.50
2023-01-29T10:41:12.536Z,1.50
2023-01-29T10:43:52.776Z,1.50
2023-01-29T10:46:32.237Z,1.50
2023-01-29T10:49:11.375Z,1.50
2023-01-29T10:51:56.793Z,1.50
2023-01-29T10:54:38.418Z,1.50
2023-01-29T10:57:15.168Z,1.60
2023-01-29T11:00:00.972Z,1.50
2023-01-29T11:02:29.142Z,1.40
2023-01-29T11:04:57.348Z,1.40
2023-01-29T11:07:27.788Z,1.30
2023-01-29T11:10:01.931Z,1.40
2023-01-29T11:12:33.704Z,1.40
2023-01-29T11:15:07.093Z,1.40
2023-01-29T11:17:35.410Z,1.50
2023-01-29T11:20:26.507Z,1.50
2023-01-29T11:22:58.092Z,1.50
2023-01-29T11:25:27.485Z,1.60
2023-01-29T11:27:57.410Z,1.60
2023-01-29T11:30:28.470Z,1.60
2023-01-29T11:33:07.957Z,1.70
2023-01-29T11:35:36.575Z,1.60
2023-01-29T11:38:23.975Z,1.60
2023-01-29T11:40:52.645Z,1.60
2023-01-29T11:43:30.612Z,1.70
2023-01-29T11:46:02.010Z,1.70
2023-01-29T11:48:40.546Z,1.70
2023-01-29T11:51:11.633Z,1.70
2023-01-29T11:53:43.732Z,1.70
2023-01-29T11:56:22.653Z,1.70
2023-01-29T11:58:52.667Z,1.70
2023-01-29T12:01:31.368Z,1.70
2023-01-29T12:03:59.990Z,1.70
2023-01-29T12:06:36.561Z,1.70
2023-01-29T12:09:14.482Z,1.80
2023-01-29T12:11:44.102Z,1.80
2023-01-29T12:14:27.997Z,1.80
2023-01-29T12:17:00.685Z,1.80
2023-01-29T12:19:36.245Z,1.80
2023-01-29T12:22:07.912Z,1.80
2023-01-29T12:24:45.072Z,1.80
2023-01-29T12:27:18.361Z,1.80
2023-01-29T12:29:51.647Z,1.80
2023-01-29T12:32:30.718Z,1.80
2023-01-29T12:35:04.339Z,1.80
2023-01-29T12:37:44.826Z,1.90
2023-01-29T12:40:16.918Z,1.90
2023-01-29T12:42:49.422Z,1.90
2023-01-29T12:45:20.114Z,1.90
2023-01-29T12:47:51.927Z,1.90
2023-01-29T12:50:23.129Z,2.00
2023-01-29T12:52:56.608Z,2.00
2023-01-29T12:55:29.490Z,2.00
2023-01-29T12:57:59.818Z,2.00
2023-01-29T13:00:30.519Z,2.00
2023-01-29T13:03:05.223Z,2.00
2023-01-29T13:05:41.748Z,2.00
2023-01-29T13:08:15.344Z,2.00
2023-01-29T13:10:47.897Z,2.00
2023-01-29T13:13:20.377Z,2.00
2023-01-29T13:15:49.285Z,2.00
2023-01-29T13:18:34.356Z,2.00
2023-01-29T13:21:03.248Z,2.00
2023-01-29T13:23:35.839Z,2.00
2023-01-29T13:26:05.977Z,1.90
2023-01-29T13:28:34.342Z,2.00
2023-01-29T13:31:14.478Z,2.00
2023-01-29T13:33:44.429Z,2.00
2023-01-29T13:36:18.499Z,2.00
2023-01-29T13:38:46.784Z,2.00
2023-01-29T13:41:16.385Z,2.00
2023-01-29T13:43:50.899Z,2.00
2023-01-29T13:46:21.479Z,2.00
2023-01-29T13:48:52.328Z,2.00
2023-01-29T13:51:23.568Z,2.00
2023-01-29T13:53:58.179Z,2.00
2023-01-29T13:56:47.830Z,2.00
2023-01-29T13:59:26.411Z,2.00
2023-01-29T14:02:21.770Z,2.00
2023-01-29T14:04:49.845Z,2.00
2023-01-29T14:07:40.959Z,2.00
2023-01-29T14:10:17.172Z,2.00
2023-01-29T14:12:52.625Z,2.00
2023-01-29T14:15:27.086Z,2.00
2023-01-29T14:18:20.274Z,2.00
2023-01-29T14:21:00.528Z,2.00
2023-01-29T14:23:41.367Z,2.00
2023-01-29T14:26:28.958Z,2.00
2023-01-29T14:29:03.746Z,2.00
2023-01-29T14:31:43.360Z,2.00
2023-01-29T14:34:19.504Z,2.00
2023-01-29T14:36:50.405Z,2.00
2023-01-29T14:39:26.575Z,2.00
2023-01-29T14:41:54.904Z,2.00
2023-01-29T14:45:00.025Z,2.00
2023-01-29T14:48:01.422Z,2.00
2023-01-29T14:50:50.672Z,2.00
2023-01-29T14:53:25.099Z,2.00
2023-01-29T14:55:58.881Z,2.00
2023-01-29T14:58:35.896Z,2.00
2023-01-29T15:01:07.977Z,2.00
2023-01-29T15:03:45.076Z,2.00
2023-01-29T15:06:19.555Z,2.00
2023-01-29T15:08:54.534Z,1.90
2023-01-29T15:11:36.719Z,1.90
2023-01-29T15:14:24.946Z,1.90
2023-01-29T15:17:28.765Z,1.90
2023-01-29T15:19:58.381Z,1.90
2023-01-29T15:22:29.060Z,1.90
2023-01-29T15:25:07.276Z,1.90
2023-01-29T15:27:35.570Z,1.90
2023-01-29T15:30:06.239Z,1.80
2023-01-29T15:32:37.337Z,1.80
2023-01-29T15:35:11.334Z,1.80
2023-01-29T15:37:39.580Z,1.80
2023-01-29T15:40:15.691Z,1.80
2023-01-29T15:42:46.702Z,1.80
2023-01-29T15:45:31.116Z,1.80
2023-01-29T15:48:03.767Z,1.70
2023-01-29T15:50:36.845Z,1.70
2023-01-29T15:53:08.508Z,1.70
2023-01-29T15:55:37.294Z,1.70
2023-01-29T15:58:05.696Z,1.70
2023-01-29T16:00:33.804Z,1.70
2023-01-29T16:03:01.936Z,1.70
2023-01-29T16:05:33.058Z,1.70
2023-01-29T16:08:03.615Z,1.70
2023-01-29T16:10:33.613Z,1.70
2023-01-29T16:13:02.457Z,1.70
2023-01-29T16:15:33.539Z,1.70
2023-01-29T16:18:03.937Z,1.70
2023-01-29T16:20:36.396Z,1.70
2023-01-29T16:23:07.355Z,1.70
2023-01-29T16:25:39.339Z,1.70
2023-01-29T16:28:11.020Z,1.70
2023-01-29T16:30:40.246Z,1.70
2023-01-29T16:33:12.962Z,1.70
2023-01-29T16:35:42.056Z,1.70
2023-01-29T16:38:26.010Z,1.70
2023-01-29T16:41:08.585Z,1.70
2023-01-29T16:43:54.243Z,1.70
2023-01-29T16:46:27.424Z,1.70
2023-01-29T16:48:55.761Z,1.70
2023-01-29T16:51:27.655Z,1.70
2023-01-29T16:54:02.424Z,1.70
2023-01-29T16:56:33.221Z,1.70
2023-01-29T16:59:03.633Z,1.70
2023-01-29T17:01:33.021Z,1.70
2023-01-29T17:04:07.670Z,1.70
2023-01-29T17:06:36.739Z,1.70
2023-01-29T17:09:07.744Z,1.70
2023-01-29T17:11:39.368Z,1.70
2023-01-29T17:14:09.146Z,1.70
2023-01-29T17:16:47.691Z,1.70
2023-01-29T17:19:22.542Z,1.70
2023-01-29T17:21:50.936Z,1.70
2023-01-29T17:24:20.408Z,1.70
2023-01-29T17:26:49.084Z,1.80
2023-01-29T17:29:20.458Z,1.80
2023-01-29T17:31:48.749Z,1.80
2023-01-29T17:34:18.727Z,1.80
2023-01-29T17:36:47.497Z,1.80
2023-01-29T17:39:21.038Z,1.70
2023-01-29T17:41:51.754Z,1.70
2023-01-29T17:44:20.271Z,1.70
2023-01-29T17:46:48.876Z,1.70
2023-01-29T17:49:23.943Z,1.60
2023-01-29T17:51:53.006Z,1.60
2023-01-29T17:54:23.546Z,1.60
2023-01-29T17:56:52.460Z,1.60
2023-01-29T17:59:23.710Z,1.60
2023-01-29T18:01:53.256Z,1.50
2023-01-29T18:04:21.863Z,1.50
2023-01-29T18:06:51.754Z,1.40
2023-01-29T18:09:22.407Z,1.40
2023-01-29T18:11:51.525Z,1.30
2023-01-29T18:14:20.279Z,1.30
2023-01-29T18:16:48.896Z,1.20
2023-01-29T18:19:22.367Z,1.20
2023-01-29T18:21:51.245Z,1.20
2023-01-29T18:24:20.537Z,1.10
2023-01-29T18:26:51.198Z,1.10
2023-01-29T18:29:19.486Z,1.10
2023-01-29T18:31:50.194Z,1.10
2023-01-29T18:34:18.420Z,1.10
2023-01-29T18:36:47.779Z,1.10
2023-01-29T18:39:16.441Z,1.10
2023-01-29T18:41:44.835Z,1.10
2023-01-29T18:44:15.003Z,1.10
2023-01-29T18:46:43.158Z,1.10
2023-01-29T18:49:11.841Z,1.10
2023-01-29T18:51:40.197Z,1.10
2023-01-29T18:54:08.525Z,1.10
2023-01-29T18:56:37.933Z,1.10
2023-01-29T18:59:27.443Z,1.20
2023-01-29T19:01:55.593Z,1.20
2023-01-29T19:04:24.728Z,1.20
2023-01-29T19:06:52.852Z,1.20
2023-01-29T19:09:20.898Z,1.20
2023-01-29T19:11:48.973Z,1.20
2023-01-29T19:14:17.100Z,1.20
2023-01-29T19:16:46.664Z,1.20
2023-01-29T19:19:14.879Z,1.10
2023-01-29T19:21:43.396Z,1.20
2023-01-29T19:24:12.070Z,1.20
2023-01-29T19:26:40.385Z,1.20
2023-01-29T19:29:09.629Z,1.20
2023-01-29T19:31:39.170Z,1.20
2023-01-29T19:34:09.195Z,1.20
2023-01-29T19:36:38.706Z,1.20
2023-01-29T19:39:07.244Z,1.20
2023-01-29T19:41:35.390Z,1.20
2023-01-29T19:44:03.567Z,1.20
2023-01-29T19:46:31.825Z,1.20
2023-01-29T19:49:00.045Z,1.30
2023-01-29T19:51:30.324Z,1.30
2023-01-29T19:53:58.520Z,1.30
2023-01-29T19:56:26.703Z,1.30
2023-01-29T19:58:57.398Z,1.30
2023-01-29T20:01:29.515Z,1.40
2023-01-29T20:03:58.848Z,1.40
2023-01-29T20:06:31.121Z,1.40
2023-01-29T20:09:02.283Z,1.50
2023-01-29T20:11:30.669Z,1.50
2023-01-29T20:14:00.982Z,1.50
2023-01-29T20:16:29.411Z,1.50
2023-01-29T20:19:13.921Z,1.50
2023-01-29T20:21:48.816Z,1.60
2023-01-29T20:24:16.953Z,1.60
2023-01-29T20:26:45.167Z,1.60
2023-01-29T20:29:13.440Z,1.60
2023-01-29T20:31:41.618Z,1.60
2023-01-29T20:34:10.598Z,1.70
2023-01-29T20:36:38.695Z,1.60
2023-01-29T20:39:08.680Z,1.60
2023-01-29T20:41:37.133Z,1.70
2023-01-29T20:44:05.284Z,1.70
2023-01-29T20:46:35.163Z,1.70
2023-01-29T20:49:03.363Z,1.70
2023-01-29T20:51:31.711Z,1.70
2023-01-29T20:53:59.958Z,1.70
2023-01-29T20:56:37.051Z,1.80
2023-01-29T20:59:10.437Z,1.80
2023-01-29T21:01:38.673Z,1.80
2023-01-29T21:04:06.859Z,1.80
2023-01-29T21:06:35.122Z,1.80
2023-01-29T21:09:03.349Z,1.80
2023-01-29T21:11:33.435Z,1.90
2023-01-29T21:14:01.959Z,1.90
2023-01-29T21:16:30.440Z,1.90
2023-01-29T21:18:59.675Z,1.90
2023-01-29T21:21:28.855Z,1.90
2023-01-29T21:23:58.276Z,1.90
2023-01-29T21:26:26.585Z,1.90
2023-01-29T21:28:56.100Z,1.90
2023-01-29T21:31:24.267Z,1.90
2023-01-29T21:33:52.694Z,1.90
2023-01-29T21:36:20.865Z,1.90
2023-01-29T21:38:49.140Z,1.90
2023-01-29T21:41:17.291Z,2.00
2023-01-29T21:43:45.552Z,2.00
2023-01-29T21:46:16.112Z,2.00
2023-01-29T21:48:44.291Z,2.00
2023-01-29T21:51:12.447Z,2.00
2023-01-29T21:53:40.553Z,2.00
2023-01-29T21:56:09.108Z,2.00
2023-01-29T21:58:37.131Z,2.10
2023-01-29T22:01:34.539Z,2.10
2023-01-29T22:03:57.084Z,2.10
2023-01-29T22:06:26.164Z,2.10
2023-01-29T22:08:54.267Z,2.10
2023-01-29T22:11:22.577Z,2.10
2023-01-29T22:13:51.754Z,2.20
2023-01-29T22:16:19.893Z,2.20
2023-01-29T22:18:50.166Z,2.20
2023-01-29T22:21:19.636Z,2.20
2023-01-29T22:23:50.144Z,2.20
2023-01-29T22:26:18.310Z,2.20
2023-01-29T22:28:46.481Z,2.30
2023-01-29T22:31:14.770Z,2.30
2023-01-29T22:33:44.035Z,2.30
2023-01-29T22:36:12.149Z,2.30
2023-01-29T22:38:43.329Z,2.30
2023-01-29T22:41:12.528Z,2.40
2023-01-29T22:43:41.123Z,2.30
2023-01-29T22:46:09.735Z,2.40
2023-01-29T22:48:37.929Z,2.40
2023-01-29T22:51:13.805Z,2.40
2023-01-29T22:53:45.129Z,2.40
2023-01-29T22:56:13.522Z,2.40
2023-01-29T22:58:42.193Z,2.50
2023-01-29T23:01:11.216Z,2.50
2023-01-29T23:03:39.250Z,2.50
2023-01-29T23:06:07.383Z,2.50
2023-01-29T23:08:35.528Z,2.50
2023-01-29T23:11:15.033Z,2.50
2023-01-29T23:13:44.530Z,2.50
2023-01-29T23:16:13.308Z,2.50
2023-01-29T23:18:41.577Z,2.50
2023-01-29T23:21:10.379Z,2.50
2023-01-29T23:23:39.371Z,2.60
2023-01-29T23:26:29.120Z,2.60
2023-01-29T23:28:57.399Z,2.60
2023-01-29T23:31:25.490Z,2.60
2023-01-29T23:33:53.611Z,2.60
2023-01-29T23:36:21.635Z,2.60
2023-01-29T23:38:49.653Z,2.70
2023-01-29T23:41:19.264Z,2.70
2023-01-29T23:43:47.326Z,2.70
2023-01-29T23:46:15.446Z,2.70
2023-01-29T23:48:43.529Z,2.70
2023-01-29T23:51:11.849Z,2.70
2023-01-29T23:53:39.873Z,2.80
2023-01-29T23:56:08.463Z,2.80
2023-01-29T23:58:37.862Z,2.80
